createdAt,value
2018-05-27T00:01:14.566Z,5.20
2018-05-27T00:03:42.893Z,5.50
2018-05-27T00:06:10.412Z,6.20
2018-05-27T00:08:37.954Z,5.67
2018-05-27T00:11:05.877Z,5.50
2018-05-27T00:13:33.819Z,5.77
2018-05-27T00:16:01.355Z,5.83
2018-05-27T00:18:29.657Z,6.10
2018-05-27T00:20:57.573Z,5.87
2018-05-27T00:23:25.104Z,5.37
2018-05-27T00:25:52.612Z,5.80
2018-05-27T00:28:20.954Z,5.93
2018-05-27T00:30:49.252Z,5.53
2018-05-27T00:33:17.187Z,5.77
2018-05-27T00:35:44.698Z,6.27
2018-05-27T00:38:12.632Z,5.87
2018-05-27T00:40:40.151Z,6.60
2018-05-27T00:43:07.689Z,6.20
2018-05-27T00:45:35.242Z,5.43
2018-05-27T00:48:02.765Z,5.63
2018-05-27T00:50:30.278Z,6.27
2018-05-27T00:52:57.824Z,6.00
2018-05-27T00:55:25.345Z,5.80
2018-05-27T00:57:53.296Z,4.90
2018-05-27T01:00:21.589Z,5.70
2018-05-27T01:02:49.166Z,5.67
2018-05-27T01:05:16.682Z,5.53
2018-05-27T01:07:44.238Z,5.87
2018-05-27T01:10:12.524Z,6.30
2018-05-27T01:12:40.829Z,6.30
2018-05-27T01:15:08.344Z,5.87
2018-05-27T01:17:35.891Z,5.83
2018-05-27T01:20:03.416Z,6.40
2018-05-27T01:22:31.940Z,4.93
2018-05-27T01:24:59.877Z,5.80
2018-05-27T01:27:27.829Z,6.17
2018-05-27T01:29:55.339Z,5.60
2018-05-27T01:32:22.851Z,5.60
2018-05-27T01:34:50.400Z,5.90
2018-05-27T01:37:17.916Z,5.50
2018-05-27T01:39:45.464Z,5.83
2018-05-27T01:42:12.987Z,5.67
2018-05-27T01:44:40.532Z,5.33
2018-05-27T01:47:08.043Z,5.27
2018-05-27T01:49:35.587Z,5.40
2018-05-27T01:52:03.106Z,5.80
2018-05-27T01:54:30.660Z,5.17
2018-05-27T01:56:58.170Z,5.30
2018-05-27T01:59:25.726Z,5.93
2018-05-27T02:01:53.248Z,5.50
2018-05-27T02:04:20.790Z,5.43
2018-05-27T02:06:48.320Z,5.47
2018-05-27T02:09:15.854Z,5.17
2018-05-27T02:11:43.367Z,5.87
2018-05-27T02:14:11.674Z,5.50
2018-05-27T02:16:39.200Z,5.33
2018-05-27T02:19:07.503Z,5.10
2018-05-27T02:21:35.007Z,5.77
2018-05-27T02:24:02.540Z,5.10
2018-05-27T02:26:30.056Z,6.20
2018-05-27T02:28:57.599Z,5.80
2018-05-27T02:31:25.895Z,5.30
2018-05-27T02:33:53.452Z,6.20
2018-05-27T02:36:20.972Z,5.57
2018-05-27T02:38:48.921Z,5.93
2018-05-27T02:41:17.214Z,5.10
2018-05-27T02:43:46.284Z,6.00
2018-05-27T02:46:13.803Z,6.50
2018-05-27T02:48:42.107Z,5.97
2018-05-27T02:51:09.635Z,6.40
2018-05-27T02:53:37.944Z,6.10
2018-05-27T02:56:05.456Z,5.83
2018-05-27T02:58:33.774Z,6.00
2018-05-27T03:01:01.288Z,5.90
2018-05-27T03:03:30.525Z,5.93
2018-05-27T03:05:59.733Z,5.73
2018-05-27T03:08:28.997Z,5.90
2018-05-27T03:10:58.164Z,6.80
2018-05-27T03:13:27.376Z,6.40
2018-05-27T03:15:56.562Z,6.10
2018-05-27T03:18:25.760Z,6.20
2018-05-27T03:20:54.926Z,6.77
2018-05-27T03:23:24.141Z,6.00
2018-05-27T03:25:53.326Z,6.97
2018-05-27T03:28:22.510Z,5.47
2018-05-27T03:30:51.722Z,6.23
2018-05-27T03:33:20.910Z,6.20
2018-05-27T03:35:50.096Z,5.83
2018-05-27T03:38:19.255Z,6.17
2018-05-27T03:40:48.446Z,7.13
2018-05-27T03:43:17.662Z,7.07
2018-05-27T03:45:46.854Z,6.17
2018-05-27T03:48:16.019Z,6.90
2018-05-27T03:50:45.198Z,6.03
2018-05-27T03:53:14.377Z,5.97
2018-05-27T03:55:43.598Z,6.60
2018-05-27T03:58:12.757Z,6.00
2018-05-27T04:00:41.948Z,6.13
2018-05-27T04:03:11.115Z,6.13
2018-05-27T04:05:46.329Z,7.23
2018-05-27T04:08:21.418Z,6.03
2018-05-27T04:10:51.013Z,5.70
2018-05-27T04:13:20.181Z,6.37
2018-05-27T04:15:49.356Z,6.70
2018-05-27T04:18:18.564Z,6.00
2018-05-27T04:20:47.802Z,6.10
2018-05-27T04:23:16.968Z,6.13
2018-05-27T04:25:46.239Z,5.93
2018-05-27T04:28:15.422Z,6.27
2018-05-27T04:30:44.629Z,8.17
2018-05-27T04:33:13.787Z,6.27
2018-05-27T04:35:42.965Z,5.77
2018-05-27T04:38:12.132Z,6.47
2018-05-27T04:40:41.318Z,6.73
2018-05-27T04:43:10.515Z,5.77
2018-05-27T04:45:39.718Z,6.00
2018-05-27T04:48:08.890Z,6.30
2018-05-27T04:50:38.073Z,5.47
2018-05-27T04:53:07.233Z,6.00
2018-05-27T04:55:36.428Z,6.10
2018-05-27T04:58:05.599Z,6.40
2018-05-27T05:00:34.794Z,6.00
2018-05-27T05:03:03.981Z,6.30
2018-05-27T05:05:33.165Z,6.23
2018-05-27T05:08:02.362Z,6.57
2018-05-27T05:10:31.568Z,6.60
2018-05-27T05:13:00.734Z,5.90
2018-05-27T05:15:29.920Z,6.17
2018-05-27T05:17:59.090Z,6.47
2018-05-27T05:20:28.308Z,6.03
2018-05-27T05:22:57.474Z,6.20
2018-05-27T05:25:26.662Z,5.67
2018-05-27T05:27:55.829Z,6.00
2018-05-27T05:30:25.017Z,5.80
2018-05-27T05:32:54.179Z,5.80
2018-05-27T05:35:23.357Z,6.10
2018-05-27T05:37:52.526Z,5.83
2018-05-27T05:40:22.029Z,7.20
2018-05-27T05:42:51.202Z,6.40
2018-05-27T05:45:20.361Z,6.10
2018-05-27T05:47:49.624Z,5.73
2018-05-27T05:50:18.807Z,6.07
2018-05-27T05:52:47.971Z,6.80
2018-05-27T05:55:17.166Z,6.70
2018-05-27T05:57:46.349Z,6.50
2018-05-27T06:00:15.531Z,6.33
2018-05-27T06:02:44.736Z,7.30
2018-05-27T06:05:13.898Z,6.47
2018-05-27T06:07:43.090Z,7.27
2018-05-27T06:10:12.264Z,6.70
2018-05-27T06:12:41.454Z,6.60
2018-05-27T06:15:10.610Z,6.57
2018-05-27T06:17:39.794Z,6.80
2018-05-27T06:20:08.976Z,6.93
2018-05-27T06:22:38.161Z,6.80
2018-05-27T06:25:07.331Z,7.43
2018-05-27T06:27:36.514Z,6.50
2018-05-27T06:30:05.670Z,8.03
2018-05-27T06:32:34.882Z,7.50
2018-05-27T06:35:04.051Z,7.33
2018-05-27T06:37:33.249Z,7.17
2018-05-27T06:40:02.413Z,7.53
2018-05-27T06:42:31.597Z,8.87
2018-05-27T06:45:00.766Z,7.97
2018-05-27T06:47:29.954Z,8.33
2018-05-27T06:49:59.106Z,6.83
2018-05-27T06:52:28.297Z,6.37
2018-05-27T06:54:57.465Z,7.20
2018-05-27T06:57:26.654Z,6.20
2018-05-27T06:59:55.820Z,6.20
2018-05-27T07:02:25.001Z,6.07
2018-05-27T07:04:54.213Z,5.70
2018-05-27T07:07:23.429Z,5.70
2018-05-27T07:09:52.594Z,5.83
2018-05-27T07:12:21.783Z,6.10
2018-05-27T07:14:50.942Z,5.80
2018-05-27T07:17:20.138Z,6.23
2018-05-27T07:19:49.319Z,6.70
2018-05-27T07:22:18.481Z,6.47
2018-05-27T07:24:47.666Z,6.70
2018-05-27T07:27:16.839Z,5.80
2018-05-27T07:29:46.031Z,6.10
2018-05-27T07:32:15.212Z,6.00
2018-05-27T07:34:44.404Z,6.73
2018-05-27T07:37:13.571Z,7.57
2018-05-27T07:39:42.794Z,5.80
2018-05-27T07:42:11.976Z,6.30
2018-05-27T07:44:41.157Z,6.70
2018-05-27T07:47:10.348Z,7.30
2018-05-27T07:49:39.526Z,6.27
2018-05-27T07:52:08.869Z,5.83
2018-05-27T07:54:38.052Z,6.73
2018-05-27T07:57:07.223Z,5.63
2018-05-27T07:59:36.484Z,6.40
2018-05-27T08:02:05.643Z,6.37
2018-05-27T08:04:34.828Z,7.07
2018-05-27T08:07:04.172Z,6.87
2018-05-27T08:09:33.468Z,6.27
2018-05-27T08:12:02.676Z,6.37
2018-05-27T08:14:31.899Z,6.80
2018-05-27T08:17:01.100Z,6.33
2018-05-27T08:19:30.340Z,6.20
2018-05-27T08:21:59.537Z,5.83
2018-05-27T08:24:28.805Z,6.40
2018-05-27T08:26:57.983Z,6.17
2018-05-27T08:29:27.191Z,5.90
2018-05-27T08:31:56.379Z,6.07
2018-05-27T08:34:25.580Z,5.77
2018-05-27T08:36:57.695Z,6.07
2018-05-27T08:39:25.379Z,6.23
2018-05-27T08:41:54.502Z,6.70
2018-05-27T08:44:22.815Z,5.27
2018-05-27T08:46:50.339Z,6.40
2018-05-27T08:49:18.651Z,5.80
2018-05-27T08:51:46.945Z,5.37
2018-05-27T08:54:14.531Z,5.83
2018-05-27T08:56:42.078Z,5.57
2018-05-27T08:59:09.620Z,5.73
2018-05-27T09:01:37.143Z,5.30
2018-05-27T09:04:04.677Z,5.57
2018-05-27T09:06:32.195Z,5.30
2018-05-27T09:08:59.802Z,5.13
2018-05-27T09:11:27.343Z,4.93
2018-05-27T09:13:54.972Z,5.67
2018-05-27T09:16:22.511Z,4.30
2018-05-27T09:18:50.053Z,4.87
2018-05-27T09:21:18.341Z,5.00
2018-05-27T09:23:46.311Z,5.20
2018-05-27T09:26:13.851Z,4.73
2018-05-27T09:28:42.164Z,5.17
2018-05-27T09:31:09.691Z,5.13
2018-05-27T09:33:37.982Z,4.47
2018-05-27T09:36:05.511Z,4.00
2018-05-27T09:38:33.040Z,4.43
2018-05-27T09:41:00.589Z,4.67
2018-05-27T09:43:28.716Z,5.23
2018-05-27T09:45:57.072Z,4.80
2018-05-27T09:48:24.984Z,4.50
2018-05-27T09:50:52.549Z,4.57
2018-05-27T09:53:20.167Z,3.97
2018-05-27T09:55:48.994Z,4.60
2018-05-27T09:58:17.285Z,4.30
2018-05-27T10:00:44.837Z,3.87
2018-05-27T10:03:12.366Z,4.30
2018-05-27T10:05:40.698Z,4.67
2018-05-27T10:08:08.263Z,4.97
2018-05-27T10:10:36.199Z,3.90
2018-05-27T10:13:03.715Z,4.50
2018-05-27T10:15:31.258Z,4.23
2018-05-27T10:17:58.797Z,4.10
2018-05-27T10:20:26.338Z,3.77
2018-05-27T10:22:53.872Z,5.07
2018-05-27T10:25:21.441Z,3.53
2018-05-27T10:27:49.028Z,4.10
2018-05-27T10:30:16.964Z,3.67
2018-05-27T10:32:44.643Z,4.00
2018-05-27T10:35:12.202Z,3.70
2018-05-27T10:37:39.727Z,2.97
2018-05-27T10:40:07.559Z,3.50
2018-05-27T10:42:35.840Z,4.17
2018-05-27T10:45:04.168Z,3.70
2018-05-27T10:47:31.708Z,3.50
2018-05-27T10:49:59.333Z,3.37
2018-05-27T10:52:26.942Z,3.50
2018-05-27T10:54:54.479Z,3.17
2018-05-27T10:57:22.809Z,3.63
2018-05-27T10:59:50.798Z,3.20
2018-05-27T11:02:18.513Z,3.07
2018-05-27T11:04:46.103Z,3.27
2018-05-27T11:07:14.400Z,3.20
2018-05-27T11:09:42.024Z,3.33
2018-05-27T11:12:09.603Z,3.00
2018-05-27T11:14:37.144Z,3.00
2018-05-27T11:17:04.685Z,3.23
2018-05-27T11:19:32.451Z,3.07
2018-05-27T11:21:59.998Z,3.60
2018-05-27T11:24:27.533Z,3.30
2018-05-27T11:26:55.845Z,3.60
2018-05-27T11:29:23.411Z,3.37
2018-05-27T11:31:50.947Z,3.57
2018-05-27T11:34:18.473Z,3.00
2018-05-27T11:36:51.794Z,3.20
2018-05-27T11:39:19.322Z,2.80
2018-05-27T11:41:46.858Z,4.00
2018-05-27T11:44:14.375Z,3.43
2018-05-27T11:46:41.915Z,3.40
2018-05-27T11:49:10.204Z,3.07
2018-05-27T11:51:38.516Z,3.40
2018-05-27T11:54:06.057Z,3.00
2018-05-27T11:56:33.606Z,2.83
2018-05-27T11:59:03.016Z,2.97
2018-05-27T12:01:30.563Z,3.10
2018-05-27T12:03:58.856Z,3.07
2018-05-27T12:06:26.398Z,2.80
2018-05-27T12:08:54.675Z,3.10
2018-05-27T12:11:22.611Z,2.90
2018-05-27T12:13:50.152Z,3.00
2018-05-27T12:19:12.978Z,3.13
2018-05-27T12:21:40.520Z,3.03
2018-05-27T12:24:08.068Z,3.03
2018-05-27T12:26:35.620Z,2.87
2018-05-27T12:29:03.134Z,3.07
2018-05-27T12:31:30.670Z,3.30
2018-05-27T12:33:58.198Z,3.30
2018-05-27T12:36:25.790Z,2.80
2018-05-27T12:38:53.426Z,2.87
2018-05-27T12:41:21.805Z,3.10
2018-05-27T12:43:49.531Z,3.00
2018-05-27T12:46:17.454Z,3.00
2018-05-27T12:48:44.966Z,3.00
2018-05-27T12:51:13.270Z,2.97
2018-05-27T12:53:40.879Z,3.10
2018-05-27T12:56:09.190Z,5.40
2018-05-27T12:58:36.739Z,4.37
2018-05-27T13:01:05.049Z,3.40
2018-05-27T13:03:32.584Z,3.23
2018-05-27T13:06:00.161Z,3.70
2018-05-27T13:08:28.467Z,3.50
2018-05-27T13:10:56.019Z,3.37
2018-05-27T13:13:24.841Z,2.97
2018-05-27T13:15:53.174Z,3.40
2018-05-27T13:18:20.710Z,3.47
2018-05-27T13:20:48.236Z,3.83
2018-05-27T13:23:15.765Z,3.60
2018-05-27T13:25:43.293Z,4.40
2018-05-27T13:28:10.848Z,4.10
2018-05-27T13:30:38.378Z,3.80
2018-05-27T13:33:05.920Z,3.63
2018-05-27T13:35:34.202Z,4.30
2018-05-27T13:38:01.764Z,4.17
2018-05-27T13:40:29.674Z,3.90
2018-05-27T13:42:57.321Z,4.00
2018-05-27T13:45:25.612Z,4.20
2018-05-27T13:47:53.159Z,3.90
2018-05-27T13:50:20.684Z,4.30
2018-05-27T13:52:48.989Z,4.03
2018-05-27T13:55:16.563Z,4.80
2018-05-27T13:57:44.110Z,4.60
2018-05-27T14:00:11.659Z,4.10
2018-05-27T14:02:39.213Z,3.50
2018-05-27T14:05:06.807Z,4.13
2018-05-27T14:07:34.349Z,3.90
2018-05-27T14:10:01.877Z,4.10
2018-05-27T14:12:29.812Z,3.83
2018-05-27T14:14:57.344Z,3.37
2018-05-27T14:17:25.290Z,3.83
2018-05-27T14:19:52.816Z,3.90
2018-05-27T14:22:20.360Z,3.70
2018-05-27T14:24:47.908Z,4.20
2018-05-27T14:27:16.220Z,4.07
2018-05-27T14:29:43.765Z,4.13
2018-05-27T14:32:11.640Z,4.43
2018-05-27T14:34:39.948Z,4.53
2018-05-27T14:37:07.487Z,5.50
2018-05-27T14:39:35.003Z,5.90
2018-05-27T14:42:03.310Z,5.43
2018-05-27T14:44:30.839Z,5.20
2018-05-27T14:46:59.132Z,3.83
2018-05-27T14:49:26.666Z,4.37
2018-05-27T14:51:54.950Z,4.80
2018-05-27T14:54:23.282Z,4.07
2018-05-27T14:56:50.881Z,4.00
2018-05-27T14:59:19.209Z,3.80
2018-05-27T15:01:47.502Z,4.00
2018-05-27T15:04:15.806Z,4.27
2018-05-27T15:06:43.326Z,3.83
2018-05-27T15:09:11.679Z,4.10
2018-05-27T15:11:39.200Z,4.10
2018-05-27T15:14:07.153Z,3.87
2018-05-27T15:16:34.674Z,5.40
2018-05-27T15:19:02.206Z,4.87
2018-05-27T15:21:30.479Z,4.63
2018-05-27T15:23:58.552Z,4.23
2018-05-27T15:26:26.101Z,4.90
2018-05-27T15:28:53.647Z,4.13
2018-05-27T15:31:21.183Z,3.87
2018-05-27T15:33:49.475Z,4.60
2018-05-27T15:36:17.019Z,4.33
2018-05-27T15:38:45.336Z,4.00
2018-05-27T15:41:12.867Z,4.60
2018-05-27T15:43:40.455Z,4.70
2018-05-27T15:46:07.996Z,4.13
2018-05-27T15:48:35.535Z,3.70
2018-05-27T15:51:03.061Z,4.87
2018-05-27T15:53:30.607Z,5.00
2018-05-27T15:55:59.163Z,4.80
2018-05-27T15:58:26.698Z,5.90
2018-05-27T16:00:54.214Z,5.10
2018-05-27T16:03:21.754Z,4.43
2018-05-27T16:05:50.039Z,4.17
2018-05-27T16:08:17.600Z,4.00
2018-05-27T16:10:45.123Z,3.90
2018-05-27T16:13:12.659Z,4.30
2018-05-27T16:15:40.181Z,4.17
2018-05-27T16:18:07.740Z,3.70
2018-05-27T16:20:35.252Z,4.40
2018-05-27T16:23:02.802Z,4.47
2018-05-27T16:25:31.980Z,3.97
2018-05-27T16:28:01.139Z,3.50
2018-05-27T16:30:30.326Z,3.70
2018-05-27T16:32:59.494Z,3.70
2018-05-27T16:35:28.677Z,3.53
2018-05-27T16:37:57.838Z,3.77
2018-05-27T16:40:27.105Z,3.73
2018-05-27T16:42:56.270Z,3.60
2018-05-27T16:45:25.446Z,3.87
2018-05-27T16:47:54.619Z,3.80
2018-05-27T16:50:23.819Z,4.00
2018-05-27T16:52:52.993Z,4.00
2018-05-27T16:55:22.189Z,3.40
2018-05-27T16:57:51.387Z,3.70
2018-05-27T17:00:20.566Z,4.20
2018-05-27T17:02:49.726Z,3.60
2018-05-27T17:05:18.917Z,4.03
2018-05-27T17:07:48.100Z,3.63
2018-05-27T17:10:17.287Z,4.20
2018-05-27T17:12:46.460Z,4.00
2018-05-27T17:15:15.647Z,4.10
2018-05-27T17:17:44.814Z,3.50
2018-05-27T17:20:14.022Z,3.77
2018-05-27T17:22:43.195Z,3.67
2018-05-27T17:25:12.390Z,3.90
2018-05-27T17:27:41.580Z,4.53
2018-05-27T17:30:10.767Z,4.07
2018-05-27T17:32:39.923Z,3.80
2018-05-27T17:35:09.110Z,4.17
2018-05-27T17:37:38.286Z,3.70
2018-05-27T17:40:07.479Z,4.03
2018-05-27T17:42:36.656Z,4.13
2018-05-27T17:45:05.841Z,4.10
2018-05-27T17:47:35.074Z,4.13
2018-05-27T17:50:04.265Z,4.00
2018-05-27T17:52:34.084Z,4.10
2018-05-27T17:55:05.862Z,4.10
2018-05-27T17:57:35.039Z,4.33
2018-05-27T18:00:05.010Z,4.20
2018-05-27T18:02:34.186Z,4.33
2018-05-27T18:05:03.370Z,4.40
2018-05-27T18:07:33.560Z,4.30
2018-05-27T18:10:04.955Z,5.10
2018-05-27T18:12:34.124Z,4.60
2018-05-27T18:15:03.309Z,4.70
2018-05-27T18:17:32.471Z,5.20
2018-05-27T18:20:01.660Z,5.33
2018-05-27T18:22:30.833Z,5.30
2018-05-27T18:25:00.025Z,4.80
2018-05-27T18:27:29.198Z,4.90
2018-05-27T18:29:58.386Z,5.07
2018-05-27T18:32:27.612Z,4.67
2018-05-27T18:34:56.792Z,5.40
2018-05-27T18:37:26.102Z,4.63
2018-05-27T18:39:55.310Z,5.40
2018-05-27T18:42:24.469Z,4.93
2018-05-27T18:44:55.022Z,5.37
2018-05-27T18:47:24.194Z,4.77
2018-05-27T18:49:53.610Z,4.97
2018-05-27T18:52:22.790Z,5.00
2018-05-27T18:54:51.984Z,5.00
2018-05-27T18:57:21.150Z,5.03
2018-05-27T18:59:50.341Z,5.23
2018-05-27T19:02:19.534Z,5.00
2018-05-27T19:05:07.690Z,5.20
2018-05-27T19:07:37.553Z,4.93
2018-05-27T19:10:06.746Z,4.87
2018-05-27T19:12:36.027Z,5.10
2018-05-27T19:15:06.936Z,5.13
2018-05-27T19:17:36.171Z,5.80
2018-05-27T19:20:05.363Z,5.23
2018-05-27T19:22:34.547Z,5.03
2018-05-27T19:25:03.750Z,5.13
2018-05-27T19:27:32.914Z,6.07
2018-05-27T19:30:02.121Z,5.93
2018-05-27T19:32:31.298Z,5.70
2018-05-27T19:35:00.519Z,6.50
2018-05-27T19:37:29.690Z,6.13
2018-05-27T19:39:58.851Z,5.93
2018-05-27T19:42:28.045Z,6.40
2018-05-27T19:44:57.226Z,6.13
2018-05-27T19:47:26.387Z,6.40
2018-05-27T19:49:55.558Z,6.43
2018-05-27T19:52:24.762Z,6.77
2018-05-27T19:54:53.936Z,6.63
2018-05-27T19:57:23.146Z,6.50
2018-05-27T19:59:52.355Z,6.27
2018-05-27T20:02:21.542Z,6.00
2018-05-27T20:04:50.709Z,5.43
2018-05-27T20:07:19.916Z,6.13
2018-05-27T20:10:08.647Z,5.27
2018-05-27T20:12:38.190Z,5.20
2018-05-27T20:15:07.943Z,5.63
2018-05-27T20:17:37.198Z,5.70
2018-05-27T20:20:06.376Z,6.47
2018-05-27T20:22:35.567Z,5.70
2018-05-27T20:25:04.742Z,5.60
2018-05-27T20:27:33.927Z,7.70
2018-05-27T20:30:03.098Z,6.63
2018-05-27T20:32:32.506Z,6.27
2018-05-27T20:35:01.762Z,6.00
2018-05-27T20:37:30.963Z,6.40
2018-05-27T20:40:00.198Z,5.93
2018-05-27T20:42:29.395Z,6.47
2018-05-27T20:44:58.588Z,6.90
2018-05-27T20:47:27.785Z,6.73
2018-05-27T20:49:56.965Z,7.03
2018-05-27T20:52:26.180Z,6.50
2018-05-27T20:54:55.340Z,6.80
2018-05-27T20:57:24.569Z,6.90
2018-05-27T20:59:53.775Z,6.27
2018-05-27T21:02:22.987Z,6.93
2018-05-27T21:04:52.156Z,7.10
2018-05-27T21:07:21.344Z,7.57
2018-05-27T21:09:50.550Z,7.83
2018-05-27T21:12:19.840Z,6.80
2018-05-27T21:14:49.022Z,7.87
2018-05-27T21:17:18.227Z,7.33
2018-05-27T21:19:47.392Z,7.27
2018-05-27T21:22:16.584Z,7.00
2018-05-27T21:24:45.754Z,7.10
2018-05-27T21:27:14.951Z,7.40
2018-05-27T21:29:44.158Z,6.57
2018-05-27T21:32:13.354Z,6.90
2018-05-27T21:34:42.545Z,6.17
2018-05-27T21:37:11.773Z,7.27
2018-05-27T21:39:40.935Z,6.23
2018-05-27T21:42:10.141Z,6.20
2018-05-27T21:44:39.306Z,6.73
2018-05-27T21:47:08.497Z,6.23
2018-05-27T21:49:37.710Z,5.97
2018-05-27T21:52:06.916Z,6.50
2018-05-27T21:54:36.081Z,6.40
2018-05-27T21:57:05.267Z,6.10
2018-05-27T21:59:34.425Z,5.73
2018-05-27T22:02:03.609Z,7.17
2018-05-27T22:04:32.770Z,6.50
2018-05-27T22:07:01.951Z,6.20
2018-05-27T22:09:31.118Z,6.50
2018-05-27T22:12:00.301Z,6.90
2018-05-27T22:14:29.488Z,6.33
2018-05-27T22:16:58.687Z,7.00
2018-05-27T22:19:27.914Z,6.80
2018-05-27T22:21:57.116Z,6.33
2018-05-27T22:24:26.282Z,5.97
2018-05-27T22:26:55.470Z,5.67
2018-05-27T22:29:24.679Z,6.00
2018-05-27T22:31:53.958Z,6.43
2018-05-27T22:34:23.197Z,6.03
2018-05-27T22:36:52.378Z,6.20
2018-05-27T22:39:21.573Z,6.17
2018-05-27T22:41:50.747Z,5.77
2018-05-27T22:44:19.961Z,6.17
2018-05-27T22:46:49.123Z,5.93
2018-05-27T22:49:18.418Z,6.10
2018-05-27T22:51:47.587Z,6.37
2018-05-27T22:54:16.784Z,6.43
2018-05-27T22:56:45.959Z,5.63
2018-05-27T22:59:15.168Z,6.40
2018-05-27T23:01:44.331Z,7.20
2018-05-27T23:04:13.526Z,5.90
2018-05-27T23:06:42.682Z,6.47
2018-05-27T23:09:11.866Z,6.40
2018-05-27T23:11:41.032Z,5.63
2018-05-27T23:14:10.251Z,5.27
2018-05-27T23:16:39.417Z,6.23
2018-05-27T23:19:08.612Z,6.27
2018-05-27T23:21:37.786Z,5.90
2018-05-27T23:24:06.990Z,6.20
2018-05-27T23:26:36.165Z,6.13
2018-05-27T23:29:05.367Z,6.10
2018-05-27T23:31:34.550Z,6.07
2018-05-27T23:34:03.737Z,6.53
2018-05-27T23:36:33.306Z,6.20
2018-05-27T23:39:02.499Z,5.70
2018-05-27T23:41:31.658Z,6.33
2018-05-27T23:44:00.847Z,6.57
2018-05-27T23:46:30.010Z,6.93
2018-05-27T23:48:59.198Z,6.37
2018-05-27T23:51:28.370Z,6.70
2018-05-27T23:53:57.573Z,6.70
2018-05-27T23:56:26.735Z,6.20
2018-05-27T23:58:55.922Z,6.20
